sensor_id;sensor_type;location;lat;lon;timestamp;pressure;altitude;pressure_sealevel;temperature;humidity
8298;BME280;4187;42.778;23.242;2023-02-10T00:00:33;97111.25;;;-5.14;96.62
8298;BME280;4187;42.778;23.242;2023-02-10T00:03:00;97097.56;;;-5.22;95.34
8298;BME280;4187;42.778;23.242;2023-02-10T00:05:27;97112.16;;;-5.25;94.77
8298;BME280;4187;42.778;23.242;2023-02-10T00:07:54;97111.31;;;-5.32;95.60
8298;BME280;4187;42.778;23.242;2023-02-10T00:10:23;97112.22;;;-5.47;95.75
8298;BME280;4187;42.778;23.242;2023-02-10T00:12:49;97080.66;;;-5.88;96.42
8298;BME280;4187;42.778;23.242;2023-02-10T00:15:16;97092.66;;;-5.91;97.70
8298;BME280;4187;42.778;23.242;2023-02-10T00:17:43;97106.41;;;-6.03;97.72
8298;BME280;4187;42.778;23.242;2023-02-10T00:20:10;97084.97;;;-6.13;98.21
8298;BME280;4187;42.778;23.242;2023-02-10T00:22:37;97103.81;;;-6.18;99.40
8298;BME280;4187;42.778;23.242;2023-02-10T00:25:04;97085.84;;;-6.32;100.00
8298;BME280;4187;42.778;23.242;2023-02-10T00:27:33;97092.69;;;-6.31;100.00
8298;BME280;4187;42.778;23.242;2023-02-10T00:29:59;97101.25;;;-6.26;100.00
8298;BME280;4187;42.778;23.242;2023-02-10T00:32:26;97100.41;;;-6.25;100.00
8298;BME280;4187;42.778;23.242;2023-02-10T00:34:53;97095.25;;;-6.10;100.00
8298;BME280;4187;42.778;23.242;2023-02-10T00:37:20;97079.84;;;-6.20;100.00
8298;BME280;4187;42.778;23.242;2023-02-10T00:39:47;97088.41;;;-6.06;100.00
8298;BME280;4187;42.778;23.242;2023-02-10T00:42:14;97095.22;;;-5.94;100.00
8298;BME280;4187;42.778;23.242;2023-02-10T00:44:43;97090.94;;;-5.88;100.00
8298;BME280;4187;42.778;23.242;2023-02-10T00:47:10;97096.03;;;-5.77;100.00
8298;BME280;4187;42.778;23.242;2023-02-10T00:49:37;97069.44;;;-5.75;100.00
8298;BME280;4187;42.778;23.242;2023-02-10T00:52:04;97088.28;;;-5.65;100.00
8298;BME280;4187;42.778;23.242;2023-02-10T00:54:31;97088.25;;;-5.61;100.00
8298;BME280;4187;42.778;23.242;2023-02-10T00:56:58;97081.38;;;-5.53;100.00
8298;BME280;4187;42.778;23.242;2023-02-10T00:59:24;97073.66;;;-5.53;100.00
8298;BME280;4187;42.778;23.242;2023-02-10T01:01:52;97074.50;;;-5.49;100.00
8298;BME280;4187;42.778;23.242;2023-02-10T01:04:19;97083.09;;;-5.50;100.00
8298;BME280;4187;42.778;23.242;2023-02-10T01:06:46;97077.91;;;-5.49;100.00
8298;BME280;4187;42.778;23.242;2023-02-10T01:09:13;97075.34;;;-5.49;100.00
8298;BME280;4187;42.778;23.242;2023-02-10T01:11:40;97072.78;;;-5.50;100.00
8298;BME280;4187;42.778;23.242;2023-02-10T01:14:06;97066.78;;;-5.51;100.00
8298;BME280;4187;42.778;23.242;2023-02-10T01:16:33;97069.34;;;-5.51;100.00
8298;BME280;4187;42.778;23.242;2023-02-10T01:19:02;97055.63;;;-5.47;100.00
8298;BME280;4187;42.778;23.242;2023-02-10T01:21:30;97074.50;;;-5.48;100.00
8298;BME280;4187;42.778;23.242;2023-02-10T01:23:57;97072.78;;;-5.49;100.00
8298;BME280;4187;42.778;23.242;2023-02-10T01:26:24;97064.22;;;-5.51;100.00
8298;BME280;4187;42.778;23.242;2023-02-10T01:28:51;97065.94;;;-5.47;100.00
8298;BME280;4187;42.778;23.242;2023-02-10T01:31:19;97062.50;;;-5.44;100.00
8298;BME280;4187;42.778;23.242;2023-02-10T01:33:49;97065.88;;;-5.37;100.00
8298;BME280;4187;42.778;23.242;2023-02-10T01:36:19;97049.63;;;-5.44;100.00
8298;BME280;4187;42.778;23.242;2023-02-10T01:38:46;97032.63;;;-5.84;99.47
8298;BME280;4187;42.778;23.242;2023-02-10T01:41:15;97053.22;;;-5.92;100.00
8298;BME280;4187;42.778;23.242;2023-02-10T01:43:59;97048.13;;;-6.02;100.00
8298;BME280;4187;42.778;23.242;2023-02-10T01:46:28;97044.75;;;-6.17;100.00
8298;BME280;4187;42.778;23.242;2023-02-10T01:48:55;97048.16;;;-6.37;100.00
8298;BME280;4187;42.778;23.242;2023-02-10T01:51:30;97037.91;;;-6.54;100.00
8298;BME280;4187;42.778;23.242;2023-02-10T01:53:57;97011.38;;;-6.76;100.00
8298;BME280;4187;42.778;23.242;2023-02-10T01:56:25;97035.34;;;-6.61;100.00
8298;BME280;4187;42.778;23.242;2023-02-10T01:58:52;97038.75;;;-6.50;100.00
8298;BME280;4187;42.778;23.242;2023-02-10T02:01:18;97033.63;;;-6.72;100.00
8298;BME280;4187;42.778;23.242;2023-02-10T02:03:46;97032.75;;;-7.04;100.00
8298;BME280;4187;42.778;23.242;2023-02-10T02:06:12;97016.44;;;-7.42;100.00
8298;BME280;4187;42.778;23.242;2023-02-10T02:08:41;97023.19;;;-7.59;100.00
8298;BME280;4187;42.778;23.242;2023-02-10T02:11:17;97027.47;;;-7.64;100.00
8298;BME280;4187;42.778;23.242;2023-02-10T02:14:08;97026.66;;;-7.56;100.00
8298;BME280;4187;42.778;23.242;2023-02-10T02:16:51;97013.00;;;-7.47;100.00
8298;BME280;4187;42.778;23.242;2023-02-10T02:19:57;97031.88;;;-7.25;100.00
8298;BME280;4187;42.778;23.242;2023-02-10T02:23:12;97029.31;;;-7.13;100.00
8298;BME280;4187;42.778;23.242;2023-02-10T02:28:39;97013.09;;;-7.02;100.00
8298;BME280;4187;42.778;23.242;2023-02-10T02:31:42;97020.81;;;-6.90;100.00
8298;BME280;4187;42.778;23.242;2023-02-10T02:34:14;97006.25;;;-6.86;100.00
8298;BME280;4187;42.778;23.242;2023-02-10T02:36:48;97013.09;;;-6.79;100.00
8298;BME280;4187;42.778;23.242;2023-02-10T02:39:16;97017.38;;;-6.80;100.00
8298;BME280;4187;42.778;23.242;2023-02-10T02:41:43;97007.97;;;-6.78;100.00
8298;BME280;4187;42.778;23.242;2023-02-10T02:44:10;97012.25;;;-6.74;100.00
8298;BME280;4187;42.778;23.242;2023-02-10T02:46:48;97011.41;;;-6.71;100.00
8298;BME280;4187;42.778;23.242;2023-02-10T02:49:26;97010.53;;;-6.72;100.00
8298;BME280;4187;42.778;23.242;2023-02-10T02:52:00;97000.25;;;-6.70;100.00
8298;BME280;4187;42.778;23.242;2023-02-10T02:54:34;97001.97;;;-6.77;100.00
8298;BME280;4187;42.778;23.242;2023-02-10T02:57:10;97002.84;;;-6.76;100.00
8298;BME280;4187;42.778;23.242;2023-02-10T02:59:40;96996.00;;;-6.71;100.00
8298;BME280;4187;42.778;23.242;2023-02-10T03:02:12;96994.28;;;-6.80;100.00
8298;BME280;4187;42.778;23.242;2023-02-10T03:04:40;97001.13;;;-6.74;100.00
8298;BME280;4187;42.778;23.242;2023-02-10T03:07:08;97002.81;;;-6.81;100.00
8298;BME280;4187;42.778;23.242;2023-02-10T03:09:35;97008.81;;;-6.95;100.00
8298;BME280;4187;42.778;23.242;2023-02-10T03:12:02;97006.25;;;-6.91;100.00
8298;BME280;4187;42.778;23.242;2023-02-10T03:14:29;97009.66;;;-7.05;100.00
8298;BME280;4187;42.778;23.242;2023-02-10T03:16:56;97017.38;;;-6.98;100.00
8298;BME280;4187;42.778;23.242;2023-02-10T03:19:24;97013.91;;;-7.25;100.00
8298;BME280;4187;42.778;23.242;2023-02-10T03:21:51;97013.03;;;-7.34;100.00
8298;BME280;4187;42.778;23.242;2023-02-10T03:24:18;97012.94;;;-7.67;100.00
8298;BME280;4187;42.778;23.242;2023-02-10T03:26:45;97005.06;;;-8.12;100.00
8298;BME280;4187;42.778;23.242;2023-02-10T03:29:13;97010.94;;;-8.36;100.00
8298;BME280;4187;42.778;23.242;2023-02-10T03:31:40;97006.53;;;-8.55;100.00
8298;BME280;4187;42.778;23.242;2023-02-10T03:34:07;97012.38;;;-8.73;100.00
8298;BME280;4187;42.778;23.242;2023-02-10T03:36:35;97002.13;;;-8.79;100.00
8298;BME280;4187;42.778;23.242;2023-02-10T03:39:03;97005.47;;;-8.84;100.00
8298;BME280;4187;42.778;23.242;2023-02-10T03:41:30;97000.34;;;-8.87;100.00
8298;BME280;4187;42.778;23.242;2023-02-10T03:43:57;96999.47;;;-8.88;100.00
8298;BME280;4187;42.778;23.242;2023-02-10T03:46:24;96982.47;;;-8.84;100.00
8298;BME280;4187;42.778;23.242;2023-02-10T03:48:50;96986.78;;;-8.73;100.00
8298;BME280;4187;42.778;23.242;2023-02-10T03:51:17;96984.31;;;-8.62;100.00
8298;BME280;4187;42.778;23.242;2023-02-10T03:53:45;96980.13;;;-8.53;100.00
8298;BME280;4187;42.778;23.242;2023-02-10T03:56:12;96983.59;;;-8.41;100.00
8298;BME280;4187;42.778;23.242;2023-02-10T03:58:40;96976.81;;;-8.29;100.00
8298;BME280;4187;42.778;23.242;2023-02-10T04:01:11;96981.13;;;-8.20;100.00
8298;BME280;4187;42.778;23.242;2023-02-10T04:03:38;96975.19;;;-8.10;100.00
8298;BME280;4187;42.778;23.242;2023-02-10T04:06:06;96981.16;;;-8.05;100.00
8298;BME280;4187;42.778;23.242;2023-02-10T04:08:33;96976.97;;;-7.91;100.00
8298;BME280;4187;42.778;23.242;2023-02-10T04:11:01;96981.28;;;-7.75;100.00
8298;BME280;4187;42.778;23.242;2023-02-10T04:13:28;96928.28;;;-7.96;100.00
8298;BME280;4187;42.778;23.242;2023-02-10T04:16:02;96980.50;;;-7.60;100.00
8298;BME280;4187;42.778;23.242;2023-02-10T04:18:30;96989.91;;;-7.50;100.00
8298;BME280;4187;42.778;23.242;2023-02-10T04:20:57;96942.88;;;-7.70;100.00
8298;BME280;4187;42.778;23.242;2023-02-10T04:23:24;96985.66;;;-7.38;100.00
8298;BME280;4187;42.778;23.242;2023-02-10T04:25:51;96986.53;;;-7.30;100.00
8298;BME280;4187;42.778;23.242;2023-02-10T04:28:19;96970.28;;;-7.35;100.00
8298;BME280;4187;42.778;23.242;2023-02-10T04:30:46;96983.97;;;-7.31;100.00
8298;BME280;4187;42.778;23.242;2023-02-10T04:33:12;96987.41;;;-7.34;100.00
8298;BME280;4187;42.778;23.242;2023-02-10T04:35:39;96991.66;;;-7.30;100.00
8298;BME280;4187;42.778;23.242;2023-02-10T04:38:06;96972.00;;;-7.29;100.00
8298;BME280;4187;42.778;23.242;2023-02-10T04:40:33;96986.56;;;-7.25;100.00
8298;BME280;4187;42.778;23.242;2023-02-10T04:42:59;96984.81;;;-7.29;100.00
8298;BME280;4187;42.778;23.242;2023-02-10T04:45:28;96987.41;;;-7.24;100.00
8298;BME280;4187;42.778;23.242;2023-02-10T04:47:54;96983.97;;;-7.30;100.00
8298;BME280;4187;42.778;23.242;2023-02-10T04:50:21;96979.66;;;-7.43;100.00
8298;BME280;4187;42.778;23.242;2023-02-10T04:52:48;96995.91;;;-7.38;100.00
8298;BME280;4187;42.778;23.242;2023-02-10T04:55:15;96998.50;;;-7.41;100.00
8298;BME280;4187;42.778;23.242;2023-02-10T04:57:42;96994.19;;;-7.40;100.00
8298;BME280;4187;42.778;23.242;2023-02-10T05:00:10;97002.78;;;-7.32;100.00
8298;BME280;4187;42.778;23.242;2023-02-10T05:02:39;97012.13;;;-7.48;100.00
8298;BME280;4187;42.778;23.242;2023-02-10T05:05:06;97018.09;;;-7.56;100.00
8298;BME280;4187;42.778;23.242;2023-02-10T05:07:33;97012.13;;;-7.55;100.00
8298;BME280;4187;42.778;23.242;2023-02-10T05:10:00;96959.88;;;-7.89;100.00
8298;BME280;4187;42.778;23.242;2023-02-10T05:12:27;97013.81;;;-7.56;100.00
8298;BME280;4187;42.778;23.242;2023-02-10T05:14:53;97012.16;;;-7.49;100.00
8298;BME280;4187;42.778;23.242;2023-02-10T05:17:20;97020.72;;;-7.44;100.00
8298;BME280;4187;42.778;23.242;2023-02-10T05:19:48;97024.97;;;-7.46;100.00
8298;BME280;4187;42.778;23.242;2023-02-10T05:22:15;97027.50;;;-7.51;100.00
8298;BME280;4187;42.778;23.242;2023-02-10T05:24:42;97027.53;;;-7.49;100.00
8298;BME280;4187;42.778;23.242;2023-02-10T05:27:09;97013.84;;;-7.54;100.00
8298;BME280;4187;42.778;23.242;2023-02-10T05:29:35;97037.78;;;-7.45;100.00
8298;BME280;4187;42.778;23.242;2023-02-10T05:32:02;97035.25;;;-7.46;100.00
8298;BME280;4187;42.778;23.242;2023-02-10T05:34:29;97042.03;;;-7.48;100.00
8298;BME280;4187;42.778;23.242;2023-02-10T05:36:57;96993.25;;;-7.80;100.00
8298;BME280;4187;42.778;23.242;2023-02-10T05:39:24;97042.91;;;-7.48;100.00
8298;BME280;4187;42.778;23.242;2023-02-10T05:41:51;97042.88;;;-7.51;100.00
8298;BME280;4187;42.778;23.242;2023-02-10T05:44:19;97046.31;;;-7.46;100.00
8298;BME280;4187;42.778;23.242;2023-02-10T05:46:46;97035.22;;;-7.48;100.00
8298;BME280;4187;42.778;23.242;2023-02-10T05:49:13;97046.38;;;-7.37;100.00
8298;BME280;4187;42.778;23.242;2023-02-10T05:51:40;97051.53;;;-7.26;100.00
8298;BME280;4187;42.778;23.242;2023-02-10T05:54:08;97063.50;;;-7.17;100.00
8298;BME280;4187;42.778;23.242;2023-02-10T05:56:35;97059.22;;;-7.18;100.00
8298;BME280;4187;42.778;23.242;2023-02-10T05:59:03;97072.94;;;-7.12;100.00
8298;BME280;4187;42.778;23.242;2023-02-10T06:01:30;97057.56;;;-7.06;100.00
8298;BME280;4187;42.778;23.242;2023-02-10T06:03:57;97057.53;;;-7.13;100.00
8298;BME280;4187;42.778;23.242;2023-02-10T06:06:24;97064.41;;;-6.91;100.00
8298;BME280;4187;42.778;23.242;2023-02-10T06:08:50;97041.34;;;-6.79;100.00
8298;BME280;4187;42.778;23.242;2023-02-10T06:11:19;97075.50;;;-5.91;100.00
8298;BME280;4187;42.778;23.242;2023-02-10T06:13:46;97068.66;;;-5.96;100.00
8298;BME280;4187;42.778;23.242;2023-02-10T06:16:12;97076.38;;;-5.99;100.00
8298;BME280;4187;42.778;23.242;2023-02-10T06:18:39;97082.41;;;-6.00;100.00
8298;BME280;4187;42.778;23.242;2023-02-10T06:21:07;97082.41;;;-5.97;100.00
8298;BME280;4187;42.778;23.242;2023-02-10T06:23:34;97090.09;;;-5.90;100.00
8298;BME280;4187;42.778;23.242;2023-02-10T06:26:01;97090.94;;;-5.88;100.00
8298;BME280;4187;42.778;23.242;2023-02-10T06:28:29;97087.44;;;-5.78;100.00
8298;BME280;4187;42.778;23.242;2023-02-10T06:30:57;97060.88;;;-5.77;100.00
8298;BME280;4187;42.778;23.242;2023-02-10T06:33:24;97100.25;;;-5.49;98.50
8298;BME280;4187;42.778;23.242;2023-02-10T06:35:51;97095.91;;;-5.41;97.97
8298;BME280;4187;42.778;23.242;2023-02-10T06:38:18;97092.41;;;-5.26;98.30
8298;BME280;4187;42.778;23.242;2023-02-10T06:40:45;97101.72;;;-5.00;96.67
8298;BME280;4187;42.778;23.242;2023-02-10T06:43:12;97107.63;;;-4.76;96.77
8298;BME280;4187;42.778;23.242;2023-02-10T06:45:40;97103.16;;;-4.53;95.43
8298;BME280;4187;42.778;23.242;2023-02-10T06:48:06;97103.84;;;-4.32;94.13
8298;BME280;4187;42.778;23.242;2023-02-10T06:50:33;97108.00;;;-4.12;93.80
8298;BME280;4187;42.778;23.242;2023-02-10T06:53:00;97113.78;;;-3.86;94.11
8298;BME280;4187;42.778;23.242;2023-02-10T06:55:27;97111.81;;;-3.60;93.22
8298;BME280;4187;42.778;23.242;2023-02-10T06:57:57;97112.41;;;-3.37;90.62
8298;BME280;4187;42.778;23.242;2023-02-10T07:00:24;97122.53;;;-3.19;89.36
8298;BME280;4187;42.778;23.242;2023-02-10T07:02:52;97125.81;;;-3.03;88.16
8298;BME280;4187;42.778;23.242;2023-02-10T07:05:20;97083.66;;;-3.07;88.29
8298;BME280;4187;42.778;23.242;2023-02-10T07:07:46;97102.09;;;-2.70;87.67
8298;BME280;4187;42.778;23.242;2023-02-10T07:10:13;97074.41;;;-2.60;88.27
8298;BME280;4187;42.778;23.242;2023-02-10T07:12:40;97104.84;;;-2.24;88.09
8298;BME280;4187;42.778;23.242;2023-02-10T07:15:08;97103.69;;;-2.03;85.43
8298;BME280;4187;42.778;23.242;2023-02-10T07:17:35;97108.56;;;-1.87;84.17
8298;BME280;4187;42.778;23.242;2023-02-10T07:20:04;97097.94;;;-1.73;82.91
8298;BME280;4187;42.778;23.242;2023-02-10T07:22:31;97105.22;;;-1.46;79.78
8298;BME280;4187;42.778;23.242;2023-02-10T07:24:58;97050.28;;;-1.60;79.14
8298;BME280;4187;42.778;23.242;2023-02-10T07:27:25;97114.06;;;-1.11;78.85
8298;BME280;4187;42.778;23.242;2023-02-10T07:29:52;97106.84;;;-0.96;76.66
8298;BME280;4187;42.778;23.242;2023-02-10T07:32:19;97111.41;;;-0.67;75.29
8298;BME280;4187;42.778;23.242;2023-02-10T07:34:45;97108.19;;;-0.38;74.55
8298;BME280;4187;42.778;23.242;2023-02-10T07:37:16;97101.44;;;-0.09;72.44
8298;BME280;4187;42.778;23.242;2023-02-10T07:39:43;97107.72;;;0.17;70.64
8298;BME280;4187;42.778;23.242;2023-02-10T07:42:09;97106.22;;;0.42;70.34
8298;BME280;4187;42.778;23.242;2023-02-10T07:44:36;97103.03;;;0.65;70.00
8298;BME280;4187;42.778;23.242;2023-02-10T07:47:05;97106.00;;;0.82;66.94
8298;BME280;4187;42.778;23.242;2023-02-10T07:49:32;97105.63;;;0.95;67.48
8298;BME280;4187;42.778;23.242;2023-02-10T07:51:59;97073.47;;;0.99;66.70
8298;BME280;4187;42.778;23.242;2023-02-10T07:54:27;97105.31;;;1.37;64.23
8298;BME280;4187;42.778;23.242;2023-02-10T07:56:55;97106.56;;;1.53;63.98
8298;BME280;4187;42.778;23.242;2023-02-10T07:59:22;97103.44;;;1.69;62.61
8298;BME280;4187;42.778;23.242;2023-02-10T08:01:49;97109.19;;;1.79;61.05
8298;BME280;4187;42.778;23.242;2023-02-10T08:04:16;97106.84;;;1.99;61.33
8298;BME280;4187;42.778;23.242;2023-02-10T08:06:43;97100.78;;;2.25;59.54
8298;BME280;4187;42.778;23.242;2023-02-10T08:09:10;97109.50;;;2.50;57.93
8298;BME280;4187;42.778;23.242;2023-02-10T08:11:38;97114.72;;;2.75;57.37
8298;BME280;4187;42.778;23.242;2023-02-10T08:14:05;97100.03;;;2.72;56.81
8298;BME280;4187;42.778;23.242;2023-02-10T08:16:32;97098.13;;;2.77;57.04
8298;BME280;4187;42.778;23.242;2023-02-10T08:18:58;97101.59;;;3.01;55.99
8298;BME280;4187;42.778;23.242;2023-02-10T08:21:25;97093.91;;;3.21;56.50
8298;BME280;4187;42.778;23.242;2023-02-10T08:23:52;97092.25;;;3.42;54.52
8298;BME280;4187;42.778;23.242;2023-02-10T08:26:21;97046.88;;;3.23;54.20
8298;BME280;4187;42.778;23.242;2023-02-10T08:28:50;97092.75;;;3.75;53.31
8298;BME280;4187;42.778;23.242;2023-02-10T08:31:17;97090.69;;;3.83;49.75
8298;BME280;4187;42.778;23.242;2023-02-10T08:33:43;97093.84;;;3.91;51.60
8298;BME280;4187;42.778;23.242;2023-02-10T08:36:12;97052.91;;;3.91;52.49
8298;BME280;4187;42.778;23.242;2023-02-10T08:38:39;97084.00;;;4.39;51.57
8298;BME280;4187;42.778;23.242;2023-02-10T08:41:06;97097.66;;;4.67;49.10
8298;BME280;4187;42.778;23.242;2023-02-10T08:43:33;97089.09;;;5.41;50.91
8298;BME280;4187;42.778;23.242;2023-02-10T08:46:01;97094.31;;;5.23;46.76
8298;BME280;4187;42.778;23.242;2023-02-10T08:48:29;97094.44;;;4.61;47.52
8298;BME280;4187;42.778;23.242;2023-02-10T08:50:57;97090.44;;;4.10;48.04
8298;BME280;4187;42.778;23.242;2023-02-10T08:53:24;97080.00;;;3.67;50.08
8298;BME280;4187;42.778;23.242;2023-02-10T08:55:57;97087.94;;;3.64;51.48
8298;BME280;4187;42.778;23.242;2023-02-10T08:58:24;97082.31;;;3.51;50.35
8298;BME280;4187;42.778;23.242;2023-02-10T09:00:51;97081.38;;;3.54;52.74
8298;BME280;4187;42.778;23.242;2023-02-10T09:03:20;97082.75;;;3.62;52.23
8298;BME280;4187;42.778;23.242;2023-02-10T09:05:47;97073.72;;;3.93;54.09
8298;BME280;4187;42.778;23.242;2023-02-10T09:08:14;97079.78;;;4.37;52.68
8298;BME280;4187;42.778;23.242;2023-02-10T09:10:42;97067.47;;;4.79;53.28
8298;BME280;4187;42.778;23.242;2023-02-10T09:13:09;97016.97;;;4.58;48.77
8298;BME280;4187;42.778;23.242;2023-02-10T09:15:37;97066.78;;;4.75;48.14
8298;BME280;4187;42.778;23.242;2023-02-10T09:18:04;97069.78;;;4.87;47.60
8298;BME280;4187;42.778;23.242;2023-02-10T09:20:33;97036.00;;;5.01;47.95
8298;BME280;4187;42.778;23.242;2023-02-10T09:23:00;97060.53;;;5.37;48.02
8298;BME280;4187;42.778;23.242;2023-02-10T09:25:27;97072.56;;;5.78;46.75
8298;BME280;4187;42.778;23.242;2023-02-10T09:27:54;97071.97;;;6.09;46.19
8298;BME280;4187;42.778;23.242;2023-02-10T09:30:23;97066.22;;;6.37;45.05
8298;BME280;4187;42.778;23.242;2023-02-10T09:32:50;97058.50;;;6.68;44.60
8298;BME280;4187;42.778;23.242;2023-02-10T09:35:17;97052.84;;;6.93;45.39
8298;BME280;4187;42.778;23.242;2023-02-10T09:37:45;97044.94;;;7.10;43.78
8298;BME280;4187;42.778;23.242;2023-02-10T09:40:17;97047.13;;;7.35;43.31
8298;BME280;4187;42.778;23.242;2023-02-10T09:43:02;97049.44;;;7.56;42.84
8298;BME280;4187;42.778;23.242;2023-02-10T09:45:35;97048.16;;;7.79;41.32
8298;BME280;4187;42.778;23.242;2023-02-10T09:48:17;97038.34;;;7.51;39.96
8298;BME280;4187;42.778;23.242;2023-02-10T09:50:54;97031.88;;;7.41;39.70
8298;BME280;4187;42.778;23.242;2023-02-10T09:53:28;97036.41;;;7.22;41.01
8298;BME280;4187;42.778;23.242;2023-02-10T09:55:58;96991.38;;;6.81;39.90
8298;BME280;4187;42.778;23.242;2023-02-10T09:58:31;97034.72;;;6.71;40.94
8298;BME280;4187;42.778;23.242;2023-02-10T10:01:02;97035.91;;;6.31;40.82
8298;BME280;4187;42.778;23.242;2023-02-10T10:03:38;97027.91;;;6.34;41.61
8298;BME280;4187;42.778;23.242;2023-02-10T10:06:14;97031.44;;;6.33;40.16
8298;BME280;4187;42.778;23.242;2023-02-10T10:08:51;97019.38;;;6.46;41.95
8298;BME280;4187;42.778;23.242;2023-02-10T10:11:25;97026.25;;;6.49;40.63
8298;BME280;4187;42.778;23.242;2023-02-10T10:13:54;97010.44;;;6.68;42.34
8298;BME280;4187;42.778;23.242;2023-02-10T10:16:45;96998.03;;;7.19;42.00
8298;BME280;4187;42.778;23.242;2023-02-10T10:19:22;97005.00;;;7.52;39.33
8298;BME280;4187;42.778;23.242;2023-02-10T10:22:00;96994.69;;;7.49;39.88
8298;BME280;4187;42.778;23.242;2023-02-10T10:24:42;96987.28;;;7.71;40.40
8298;BME280;4187;42.778;23.242;2023-02-10T10:27:23;96992.19;;;8.08;40.59
8298;BME280;4187;42.778;23.242;2023-02-10T10:29:55;96983.69;;;8.03;38.48
8298;BME280;4187;42.778;23.242;2023-02-10T10:32:34;96943.72;;;7.82;38.69
8298;BME280;4187;42.778;23.242;2023-02-10T10:35:05;96971.25;;;8.36;44.29
8298;BME280;4187;42.778;23.242;2023-02-10T10:37:38;96974.81;;;9.22;41.89
8298;BME280;4187;42.778;23.242;2023-02-10T10:40:07;96934.84;;;9.15;35.91
8298;BME280;4187;42.778;23.242;2023-02-10T10:42:43;96960.44;;;8.99;36.47
8298;BME280;4187;42.778;23.242;2023-02-10T10:45:16;96958.38;;;8.76;36.72
8298;BME280;4187;42.778;23.242;2023-02-10T10:47:46;96956.19;;;8.96;38.18
8298;BME280;4187;42.778;23.242;2023-02-10T10:50:16;96950.44;;;9.18;45.24
8298;BME280;4187;42.778;23.242;2023-02-10T10:52:44;96949.28;;;9.36;37.31
8298;BME280;4187;42.778;23.242;2023-02-10T10:55:20;96948.16;;;9.40;37.53
8298;BME280;4187;42.778;23.242;2023-02-10T10:57:50;96950.31;;;9.48;37.04
8298;BME280;4187;42.778;23.242;2023-02-10T11:00:20;96918.56;;;9.49;36.37
8298;BME280;4187;42.778;23.242;2023-02-10T11:02:53;96946.53;;;9.79;35.38
8298;BME280;4187;42.778;23.242;2023-02-10T11:05:21;96943.75;;;9.68;35.40
8298;BME280;4187;42.778;23.242;2023-02-10T11:07:49;96941.38;;;9.36;35.31
8298;BME280;4187;42.778;23.242;2023-02-10T11:10:25;96945.47;;;9.54;36.62
8298;BME280;4187;42.778;23.242;2023-02-10T11:12:53;96943.16;;;9.77;36.43
8298;BME280;4187;42.778;23.242;2023-02-10T11:15:38;96938.53;;;10.07;34.54
8298;BME280;4187;42.778;23.242;2023-02-10T11:18:07;96934.06;;;10.22;33.72
8298;BME280;4187;42.778;23.242;2023-02-10T11:20:53;96919.31;;;10.44;34.36
8298;BME280;4187;42.778;23.242;2023-02-10T11:23:20;96927.63;;;10.26;32.74
8298;BME280;4187;42.778;23.242;2023-02-10T11:25:56;96924.50;;;9.80;33.34
8298;BME280;4187;42.778;23.242;2023-02-10T11:28:25;96927.13;;;9.80;35.35
8298;BME280;4187;42.778;23.242;2023-02-10T11:30:55;96926.59;;;9.48;33.70
8298;BME280;4187;42.778;23.242;2023-02-10T11:33:25;96926.22;;;9.40;33.31
8298;BME280;4187;42.778;23.242;2023-02-10T11:35:56;96907.47;;;9.03;33.31
8298;BME280;4187;42.778;23.242;2023-02-10T11:38:25;96907.03;;;8.83;33.43
8298;BME280;4187;42.778;23.242;2023-02-10T11:40:55;96903.53;;;8.96;33.72
8298;BME280;4187;42.778;23.242;2023-02-10T11:43:27;96903.53;;;9.51;34.54
8298;BME280;4187;42.778;23.242;2023-02-10T11:45:56;96892.53;;;10.11;32.57
8298;BME280;4187;42.778;23.242;2023-02-10T11:48:25;96896.09;;;9.97;32.09
8298;BME280;4187;42.778;23.242;2023-02-10T11:51:04;96902.91;;;9.60;32.89
8298;BME280;4187;42.778;23.242;2023-02-10T11:53:33;96894.41;;;9.70;32.50
8298;BME280;4187;42.778;23.242;2023-02-10T11:56:04;96892.19;;;10.03;32.83
8298;BME280;4187;42.778;23.242;2023-02-10T11:58:59;96886.91;;;10.42;32.54
8298;BME280;4187;42.778;23.242;2023-02-10T12:01:48;96887.94;;;10.77;32.52
8298;BME280;4187;42.778;23.242;2023-02-10T12:07:26;96890.16;;;10.71;29.48
8298;BME280;4187;42.778;23.242;2023-02-10T12:09:59;96877.59;;;10.49;31.13
8298;BME280;4187;42.778;23.242;2023-02-10T12:12:37;96864.50;;;10.23;29.99
8298;BME280;4187;42.778;23.242;2023-02-10T12:15:16;96856.38;;;10.13;30.82
8298;BME280;4187;42.778;23.242;2023-02-10T12:17:56;96869.47;;;10.27;30.96
8298;BME280;4187;42.778;23.242;2023-02-10T12:20:34;96859.00;;;10.63;31.57
8298;BME280;4187;42.778;23.242;2023-02-10T12:23:17;96864.75;;;11.06;30.08
8298;BME280;4187;42.778;23.242;2023-02-10T12:25:58;96858.28;;;11.47;29.50
8298;BME280;4187;42.778;23.242;2023-02-10T12:28:36;96854.72;;;11.71;29.00
8298;BME280;4187;42.778;23.242;2023-02-10T12:31:20;96843.06;;;11.97;29.05
8298;BME280;4187;42.778;23.242;2023-02-10T12:34:06;96834.56;;;12.16;28.81
8298;BME280;4187;42.778;23.242;2023-02-10T12:36:45;96843.31;;;12.51;28.37
8298;BME280;4187;42.778;23.242;2023-02-10T12:39:21;96840.94;;;12.14;27.62
8298;BME280;4187;42.778;23.242;2023-02-10T12:41:59;96836.81;;;11.75;28.95
8298;BME280;4187;42.778;23.242;2023-02-10T12:44:43;96832.63;;;11.60;28.58
8298;BME280;4187;42.778;23.242;2023-02-10T12:47:24;96839.56;;;11.26;28.73
8298;BME280;4187;42.778;23.242;2023-02-10T12:50:29;96835.13;;;11.14;29.22
8298;BME280;4187;42.778;23.242;2023-02-10T12:53:05;96837.63;;;11.28;29.74
8298;BME280;4187;42.778;23.242;2023-02-10T12:55:42;96831.53;;;11.15;28.76
8298;BME280;4187;42.778;23.242;2023-02-10T12:58:16;96827.50;;;10.86;29.46
8298;BME280;4187;42.778;23.242;2023-02-10T13:00:50;96834.25;;;11.02;28.99
8298;BME280;4187;42.778;23.242;2023-02-10T13:03:22;96836.19;;;10.75;28.61
8298;BME280;4187;42.778;23.242;2023-02-10T13:05:59;96833.13;;;10.68;29.08
8298;BME280;4187;42.778;23.242;2023-02-10T13:08:34;96836.38;;;10.85;28.58
8298;BME280;4187;42.778;23.242;2023-02-10T13:11:10;96835.13;;;11.14;28.65
8298;BME280;4187;42.778;23.242;2023-02-10T13:13:42;96828.53;;;11.56;28.24
8298;BME280;4187;42.778;23.242;2023-02-10T13:16:16;96832.72;;;11.94;28.26
8298;BME280;4187;42.778;23.242;2023-02-10T13:18:52;96829.34;;;12.04;28.58
8298;BME280;4187;42.778;23.242;2023-02-10T13:21:27;96827.72;;;12.36;35.43
8298;BME280;4187;42.778;23.242;2023-02-10T13:24:03;96823.91;;;12.95;35.92
8298;BME280;4187;42.778;23.242;2023-02-10T13:26:41;96835.13;;;12.99;30.24
8298;BME280;4187;42.778;23.242;2023-02-10T13:29:20;96831.63;;;12.87;27.84
8298;BME280;4187;42.778;23.242;2023-02-10T13:34:49;96831.38;;;12.68;27.95